sensor_id;sensor_type;location;lat;lon;timestamp;P1;durP1;ratioP1;P2;durP2;ratioP2
10890;SDS011;5498;50.928;11.598;2022-11-02T00:02:51;7.00;;;3.70;;
10890;SDS011;5498;50.928;11.598;2022-11-02T00:05:53;4.03;;;3.43;;
10890;SDS011;5498;50.928;11.598;2022-11-02T00:08:55;8.73;;;3.97;;
10890;SDS011;5498;50.928;11.598;2022-11-02T00:11:57;5.37;;;3.23;;
10890;SDS011;5498;50.928;11.598;2022-11-02T00:14:59;5.63;;;3.20;;
10890;SDS011;5498;50.928;11.598;2022-11-02T00:18:04;6.90;;;3.27;;
10890;SDS011;5498;50.928;11.598;2022-11-02T00:21:09;10.13;;;3.17;;
10890;SDS011;5498;50.928;11.598;2022-11-02T00:24:12;7.07;;;3.17;;
10890;SDS011;5498;50.928;11.598;2022-11-02T00:27:15;6.27;;;3.30;;
10890;SDS011;5498;50.928;11.598;2022-11-02T00:30:17;4.53;;;2.93;;
10890;SDS011;5498;50.928;11.598;2022-11-02T00:33:20;8.60;;;3.73;;
10890;SDS011;5498;50.928;11.598;2022-11-02T00:36:22;6.83;;;3.30;;
10890;SDS011;5498;50.928;11.598;2022-11-02T00:39:25;5.97;;;3.10;;
10890;SDS011;5498;50.928;11.598;2022-11-02T00:42:27;4.30;;;2.57;;
10890;SDS011;5498;50.928;11.598;2022-11-02T00:45:29;4.83;;;2.73;;
10890;SDS011;5498;50.928;11.598;2022-11-02T00:48:32;7.13;;;3.40;;
10890;SDS011;5498;50.928;11.598;2022-11-02T00:51:35;4.57;;;3.40;;
10890;SDS011;5498;50.928;11.598;2022-11-02T00:54:37;5.30;;;3.27;;
10890;SDS011;5498;50.928;11.598;2022-11-02T00:57:39;5.17;;;3.40;;
10890;SDS011;5498;50.928;11.598;2022-11-02T01:00:41;8.37;;;3.23;;
10890;SDS011;5498;50.928;11.598;2022-11-02T01:03:44;8.37;;;3.53;;
10890;SDS011;5498;50.928;11.598;2022-11-02T01:06:46;6.40;;;3.90;;
10890;SDS011;5498;50.928;11.598;2022-11-02T01:09:48;5.30;;;3.37;;
10890;SDS011;5498;50.928;11.598;2022-11-02T01:12:50;6.03;;;3.27;;
10890;SDS011;5498;50.928;11.598;2022-11-02T01:15:52;5.70;;;3.83;;
10890;SDS011;5498;50.928;11.598;2022-11-02T01:18:56;9.30;;;3.30;;
10890;SDS011;5498;50.928;11.598;2022-11-02T01:21:59;6.37;;;3.83;;
10890;SDS011;5498;50.928;11.598;2022-11-02T01:25:04;9.97;;;3.13;;
10890;SDS011;5498;50.928;11.598;2022-11-02T01:28:07;5.33;;;3.47;;
10890;SDS011;5498;50.928;11.598;2022-11-02T01:31:09;7.33;;;4.43;;
10890;SDS011;5498;50.928;11.598;2022-11-02T01:34:13;13.83;;;4.00;;
10890;SDS011;5498;50.928;11.598;2022-11-02T01:37:16;7.10;;;3.73;;
10890;SDS011;5498;50.928;11.598;2022-11-02T01:40:18;9.53;;;4.53;;
10890;SDS011;5498;50.928;11.598;2022-11-02T01:43:20;7.63;;;4.40;;
10890;SDS011;5498;50.928;11.598;2022-11-02T01:46:26;6.80;;;4.20;;
10890;SDS011;5498;50.928;11.598;2022-11-02T01:49:37;7.60;;;5.33;;
10890;SDS011;5498;50.928;11.598;2022-11-02T01:52:42;5.53;;;3.80;;
10890;SDS011;5498;50.928;11.598;2022-11-02T01:55:45;5.27;;;3.97;;
10890;SDS011;5498;50.928;11.598;2022-11-02T01:58:48;12.00;;;4.93;;
10890;SDS011;5498;50.928;11.598;2022-11-02T02:01:56;5.40;;;3.53;;
10890;SDS011;5498;50.928;11.598;2022-11-02T02:05:01;8.10;;;3.60;;
10890;SDS011;5498;50.928;11.598;2022-11-02T02:08:06;5.53;;;3.73;;
10890;SDS011;5498;50.928;11.598;2022-11-02T02:11:25;13.23;;;3.77;;
10890;SDS011;5498;50.928;11.598;2022-11-02T02:14:29;8.27;;;3.43;;
10890;SDS011;5498;50.928;11.598;2022-11-02T02:17:35;8.70;;;3.37;;
10890;SDS011;5498;50.928;11.598;2022-11-02T02:20:49;9.00;;;3.70;;
10890;SDS011;5498;50.928;11.598;2022-11-02T02:24:11;6.20;;;3.10;;
10890;SDS011;5498;50.928;11.598;2022-11-02T02:27:27;6.17;;;3.33;;
10890;SDS011;5498;50.928;11.598;2022-11-02T02:30:45;6.23;;;3.47;;
10890;SDS011;5498;50.928;11.598;2022-11-02T02:33:52;6.43;;;3.03;;
10890;SDS011;5498;50.928;11.598;2022-11-02T02:37:00;7.53;;;3.27;;
10890;SDS011;5498;50.928;11.598;2022-11-02T02:40:09;4.03;;;3.00;;
10890;SDS011;5498;50.928;11.598;2022-11-02T02:43:19;10.27;;;3.30;;
10890;SDS011;5498;50.928;11.598;2022-11-02T02:46:31;6.10;;;3.00;;
10890;SDS011;5498;50.928;11.598;2022-11-02T02:49:37;5.33;;;3.67;;
10890;SDS011;5498;50.928;11.598;2022-11-02T02:52:45;7.50;;;3.90;;
10890;SDS011;5498;50.928;11.598;2022-11-02T02:55:50;11.80;;;3.83;;
10890;SDS011;5498;50.928;11.598;2022-11-02T02:58:56;6.47;;;3.50;;
10890;SDS011;5498;50.928;11.598;2022-11-02T03:02:04;6.57;;;3.60;;
10890;SDS011;5498;50.928;11.598;2022-11-02T03:05:21;5.67;;;3.57;;
10890;SDS011;5498;50.928;11.598;2022-11-02T03:08:25;8.23;;;3.50;;
10890;SDS011;5498;50.928;11.598;2022-11-02T03:11:28;10.73;;;3.33;;
10890;SDS011;5498;50.928;11.598;2022-11-02T03:14:38;7.47;;;2.90;;
10890;SDS011;5498;50.928;11.598;2022-11-02T03:17:51;6.13;;;3.33;;
10890;SDS011;5498;50.928;11.598;2022-11-02T03:21:04;8.60;;;2.90;;
10890;SDS011;5498;50.928;11.598;2022-11-02T03:24:26;7.20;;;3.33;;
10890;SDS011;5498;50.928;11.598;2022-11-02T03:27:36;5.13;;;3.17;;
10890;SDS011;5498;50.928;11.598;2022-11-02T03:30:43;3.47;;;2.30;;
10890;SDS011;5498;50.928;11.598;2022-11-02T03:33:50;5.23;;;2.87;;
10890;SDS011;5498;50.928;11.598;2022-11-02T03:37:01;4.20;;;2.80;;
10890;SDS011;5498;50.928;11.598;2022-11-02T03:40:12;4.53;;;2.33;;
10890;SDS011;5498;50.928;11.598;2022-11-02T03:43:18;7.63;;;2.80;;
10890;SDS011;5498;50.928;11.598;2022-11-02T03:46:23;4.80;;;2.90;;
10890;SDS011;5498;50.928;11.598;2022-11-02T03:49:27;6.03;;;2.53;;
10890;SDS011;5498;50.928;11.598;2022-11-02T03:52:30;7.47;;;3.13;;
10890;SDS011;5498;50.928;11.598;2022-11-02T03:55:36;4.30;;;2.67;;
10890;SDS011;5498;50.928;11.598;2022-11-02T03:58:42;5.20;;;2.83;;
10890;SDS011;5498;50.928;11.598;2022-11-02T04:01:46;4.50;;;2.87;;
10890;SDS011;5498;50.928;11.598;2022-11-02T04:04:51;4.87;;;3.00;;
10890;SDS011;5498;50.928;11.598;2022-11-02T04:07:54;5.57;;;2.67;;
10890;SDS011;5498;50.928;11.598;2022-11-02T04:11:13;5.27;;;2.63;;
10890;SDS011;5498;50.928;11.598;2022-11-02T04:14:34;4.67;;;2.73;;
10890;SDS011;5498;50.928;11.598;2022-11-02T04:17:40;5.83;;;2.73;;
10890;SDS011;5498;50.928;11.598;2022-11-02T04:21:00;8.23;;;2.87;;
10890;SDS011;5498;50.928;11.598;2022-11-02T04:24:02;5.27;;;2.73;;
10890;SDS011;5498;50.928;11.598;2022-11-02T04:27:22;6.37;;;2.83;;
10890;SDS011;5498;50.928;11.598;2022-11-02T04:30:24;3.30;;;2.20;;
10890;SDS011;5498;50.928;11.598;2022-11-02T04:33:27;5.87;;;2.50;;
10890;SDS011;5498;50.928;11.598;2022-11-02T04:36:35;7.00;;;3.80;;
10890;SDS011;5498;50.928;11.598;2022-11-02T04:39:37;7.67;;;3.03;;
10890;SDS011;5498;50.928;11.598;2022-11-02T04:42:38;8.13;;;3.37;;
10890;SDS011;5498;50.928;11.598;2022-11-02T04:45:40;9.03;;;3.03;;
10890;SDS011;5498;50.928;11.598;2022-11-02T04:48:44;10.03;;;3.80;;
10890;SDS011;5498;50.928;11.598;2022-11-02T04:51:46;6.93;;;3.37;;
10890;SDS011;5498;50.928;11.598;2022-11-02T04:54:48;6.47;;;2.87;;
10890;SDS011;5498;50.928;11.598;2022-11-02T04:57:50;5.00;;;3.47;;
10890;SDS011;5498;50.928;11.598;2022-11-02T05:00:52;7.27;;;3.13;;
10890;SDS011;5498;50.928;11.598;2022-11-02T05:03:56;4.40;;;2.97;;
10890;SDS011;5498;50.928;11.598;2022-11-02T05:06:58;4.70;;;3.00;;
10890;SDS011;5498;50.928;11.598;2022-11-02T05:10:00;6.90;;;3.10;;
10890;SDS011;5498;50.928;11.598;2022-11-02T05:13:02;8.23;;;3.43;;
10890;SDS011;5498;50.928;11.598;2022-11-02T05:16:10;5.83;;;2.67;;
10890;SDS011;5498;50.928;11.598;2022-11-02T05:19:15;17.50;;;2.93;;
10890;SDS011;5498;50.928;11.598;2022-11-02T05:22:18;6.40;;;2.73;;
10890;SDS011;5498;50.928;11.598;2022-11-02T05:25:20;15.93;;;3.83;;
10890;SDS011;5498;50.928;11.598;2022-11-02T05:28:22;9.43;;;2.73;;
10890;SDS011;5498;50.928;11.598;2022-11-02T05:31:25;7.10;;;2.70;;
10890;SDS011;5498;50.928;11.598;2022-11-02T05:34:28;8.23;;;3.03;;
10890;SDS011;5498;50.928;11.598;2022-11-02T05:37:30;5.60;;;3.03;;
10890;SDS011;5498;50.928;11.598;2022-11-02T05:40:32;4.77;;;2.40;;
10890;SDS011;5498;50.928;11.598;2022-11-02T05:43:37;9.57;;;3.03;;
10890;SDS011;5498;50.928;11.598;2022-11-02T05:46:41;10.70;;;3.10;;
10890;SDS011;5498;50.928;11.598;2022-11-02T05:49:44;7.50;;;3.13;;
10890;SDS011;5498;50.928;11.598;2022-11-02T05:52:47;9.90;;;2.30;;
10890;SDS011;5498;50.928;11.598;2022-11-02T05:55:49;7.30;;;3.07;;
10890;SDS011;5498;50.928;11.598;2022-11-02T05:58:52;8.03;;;3.03;;
10890;SDS011;5498;50.928;11.598;2022-11-02T06:01:54;11.03;;;3.10;;
10890;SDS011;5498;50.928;11.598;2022-11-02T06:04:58;6.93;;;2.77;;
10890;SDS011;5498;50.928;11.598;2022-11-02T06:08:00;10.23;;;3.07;;
10890;SDS011;5498;50.928;11.598;2022-11-02T06:11:03;6.80;;;2.70;;
10890;SDS011;5498;50.928;11.598;2022-11-02T06:14:05;9.80;;;2.90;;
10890;SDS011;5498;50.928;11.598;2022-11-02T06:17:07;10.07;;;2.87;;
10890;SDS011;5498;50.928;11.598;2022-11-02T06:20:11;7.80;;;3.10;;
10890;SDS011;5498;50.928;11.598;2022-11-02T06:23:15;5.07;;;2.57;;
10890;SDS011;5498;50.928;11.598;2022-11-02T06:26:17;8.47;;;2.70;;
10890;SDS011;5498;50.928;11.598;2022-11-02T06:29:19;4.13;;;2.50;;
10890;SDS011;5498;50.928;11.598;2022-11-02T06:32:22;8.87;;;3.30;;
10890;SDS011;5498;50.928;11.598;2022-11-02T06:35:25;8.20;;;3.17;;
10890;SDS011;5498;50.928;11.598;2022-11-02T06:38:27;5.97;;;2.90;;
10890;SDS011;5498;50.928;11.598;2022-11-02T06:41:29;9.43;;;3.47;;
10890;SDS011;5498;50.928;11.598;2022-11-02T06:44:31;8.23;;;2.40;;
10890;SDS011;5498;50.928;11.598;2022-11-02T06:47:34;9.07;;;3.47;;
10890;SDS011;5498;50.928;11.598;2022-11-02T06:50:38;7.63;;;3.40;;
10890;SDS011;5498;50.928;11.598;2022-11-02T06:53:40;15.03;;;3.10;;
10890;SDS011;5498;50.928;11.598;2022-11-02T06:56:42;7.17;;;2.90;;
10890;SDS011;5498;50.928;11.598;2022-11-02T06:59:44;6.83;;;3.00;;
10890;SDS011;5498;50.928;11.598;2022-11-02T07:02:57;16.73;;;3.10;;
10890;SDS011;5498;50.928;11.598;2022-11-02T07:06:01;7.03;;;2.83;;
10890;SDS011;5498;50.928;11.598;2022-11-02T07:09:04;12.70;;;2.83;;
10890;SDS011;5498;50.928;11.598;2022-11-02T07:12:06;10.90;;;2.80;;
10890;SDS011;5498;50.928;11.598;2022-11-02T07:15:08;11.57;;;2.73;;
10890;SDS011;5498;50.928;11.598;2022-11-02T07:18:11;11.33;;;3.00;;
10890;SDS011;5498;50.928;11.598;2022-11-02T07:21:14;15.53;;;2.70;;
10890;SDS011;5498;50.928;11.598;2022-11-02T07:24:17;8.97;;;3.93;;
10890;SDS011;5498;50.928;11.598;2022-11-02T07:27:19;8.03;;;1.90;;
10890;SDS011;5498;50.928;11.598;2022-11-02T07:30:21;7.03;;;2.00;;
10890;SDS011;5498;50.928;11.598;2022-11-02T07:33:23;10.43;;;2.70;;
10890;SDS011;5498;50.928;11.598;2022-11-02T07:36:26;5.77;;;2.13;;
10890;SDS011;5498;50.928;11.598;2022-11-02T07:39:28;6.90;;;1.87;;
10890;SDS011;5498;50.928;11.598;2022-11-02T07:42:31;12.17;;;2.13;;
10890;SDS011;5498;50.928;11.598;2022-11-02T07:45:33;8.67;;;2.60;;
10890;SDS011;5498;50.928;11.598;2022-11-02T07:48:35;8.93;;;2.30;;
10890;SDS011;5498;50.928;11.598;2022-11-02T07:51:38;8.93;;;1.90;;
10890;SDS011;5498;50.928;11.598;2022-11-02T07:54:40;7.73;;;2.10;;
10890;SDS011;5498;50.928;11.598;2022-11-02T07:57:42;9.77;;;2.07;;
10890;SDS011;5498;50.928;11.598;2022-11-02T08:00:52;8.43;;;2.87;;
10890;SDS011;5498;50.928;11.598;2022-11-02T08:03:57;12.27;;;2.20;;
10890;SDS011;5498;50.928;11.598;2022-11-02T08:07:01;13.47;;;2.43;;
10890;SDS011;5498;50.928;11.598;2022-11-02T08:10:03;6.60;;;2.47;;
10890;SDS011;5498;50.928;11.598;2022-11-02T08:13:06;6.73;;;2.37;;
10890;SDS011;5498;50.928;11.598;2022-11-02T08:16:09;11.00;;;2.10;;
10890;SDS011;5498;50.928;11.598;2022-11-02T08:19:11;13.23;;;2.00;;
10890;SDS011;5498;50.928;11.598;2022-11-02T08:22:14;9.30;;;1.90;;
10890;SDS011;5498;50.928;11.598;2022-11-02T08:25:16;10.13;;;2.30;;
10890;SDS011;5498;50.928;11.598;2022-11-02T08:28:19;7.40;;;2.20;;
10890;SDS011;5498;50.928;11.598;2022-11-02T08:31:23;8.20;;;2.20;;
10890;SDS011;5498;50.928;11.598;2022-11-02T08:34:25;8.67;;;2.10;;
10890;SDS011;5498;50.928;11.598;2022-11-02T08:37:29;6.87;;;2.27;;
10890;SDS011;5498;50.928;11.598;2022-11-02T08:40:31;2.73;;;1.60;;
10890;SDS011;5498;50.928;11.598;2022-11-02T08:43:34;5.30;;;1.93;;
10890;SDS011;5498;50.928;11.598;2022-11-02T08:46:36;5.97;;;1.83;;
10890;SDS011;5498;50.928;11.598;2022-11-02T08:49:38;4.27;;;1.80;;
10890;SDS011;5498;50.928;11.598;2022-11-02T08:52:41;7.57;;;1.77;;
10890;SDS011;5498;50.928;11.598;2022-11-02T08:55:43;5.67;;;1.70;;
10890;SDS011;5498;50.928;11.598;2022-11-02T08:58:45;10.13;;;3.10;;
10890;SDS011;5498;50.928;11.598;2022-11-02T09:01:47;11.00;;;2.37;;
10890;SDS011;5498;50.928;11.598;2022-11-02T09:04:50;17.33;;;2.17;;
10890;SDS011;5498;50.928;11.598;2022-11-02T09:07:55;6.13;;;2.17;;
10890;SDS011;5498;50.928;11.598;2022-11-02T09:10:58;9.50;;;2.83;;
10890;SDS011;5498;50.928;11.598;2022-11-02T09:14:02;39.23;;;6.97;;
10890;SDS011;5498;50.928;11.598;2022-11-02T09:17:06;20.10;;;4.50;;
10890;SDS011;5498;50.928;11.598;2022-11-02T09:20:08;20.40;;;5.47;;
10890;SDS011;5498;50.928;11.598;2022-11-02T09:23:12;18.57;;;4.83;;
10890;SDS011;5498;50.928;11.598;2022-11-02T09:26:15;14.10;;;3.67;;
10890;SDS011;5498;50.928;11.598;2022-11-02T09:29:17;12.93;;;4.93;;
10890;SDS011;5498;50.928;11.598;2022-11-02T09:32:20;10.93;;;4.70;;
10890;SDS011;5498;50.928;11.598;2022-11-02T09:35:22;9.57;;;3.13;;
10890;SDS011;5498;50.928;11.598;2022-11-02T09:38:27;8.50;;;2.40;;
10890;SDS011;5498;50.928;11.598;2022-11-02T09:41:31;16.47;;;4.67;;
10890;SDS011;5498;50.928;11.598;2022-11-02T09:44:42;14.50;;;3.83;;
10890;SDS011;5498;50.928;11.598;2022-11-02T09:47:51;14.80;;;4.90;;
10890;SDS011;5498;50.928;11.598;2022-11-02T09:51:00;22.80;;;5.80;;
10890;SDS011;5498;50.928;11.598;2022-11-02T09:54:10;9.00;;;3.40;;
10890;SDS011;5498;50.928;11.598;2022-11-02T09:57:23;12.40;;;3.87;;
10890;SDS011;5498;50.928;11.598;2022-11-02T10:00:29;9.90;;;2.37;;
10890;SDS011;5498;50.928;11.598;2022-11-02T10:03:41;9.63;;;2.80;;
10890;SDS011;5498;50.928;11.598;2022-11-02T10:06:59;10.77;;;3.20;;
10890;SDS011;5498;50.928;11.598;2022-11-02T10:10:10;5.10;;;1.80;;
10890;SDS011;5498;50.928;11.598;2022-11-02T10:13:18;7.57;;;2.13;;
10890;SDS011;5498;50.928;11.598;2022-11-02T10:16:31;5.47;;;2.20;;
10890;SDS011;5498;50.928;11.598;2022-11-02T10:19:38;6.07;;;1.60;;
10890;SDS011;5498;50.928;11.598;2022-11-02T10:22:43;13.33;;;4.30;;
10890;SDS011;5498;50.928;11.598;2022-11-02T10:25:49;15.00;;;4.47;;
10890;SDS011;5498;50.928;11.598;2022-11-02T10:28:54;15.77;;;3.97;;
10890;SDS011;5498;50.928;11.598;2022-11-02T10:32:00;12.37;;;4.30;;
10890;SDS011;5498;50.928;11.598;2022-11-02T10:35:03;9.90;;;3.30;;
10890;SDS011;5498;50.928;11.598;2022-11-02T10:38:19;14.97;;;3.77;;
10890;SDS011;5498;50.928;11.598;2022-11-02T10:41:45;13.50;;;4.23;;
10890;SDS011;5498;50.928;11.598;2022-11-02T10:45:29;13.93;;;3.27;;
10890;SDS011;5498;50.928;11.598;2022-11-02T10:48:59;22.07;;;7.37;;
10890;SDS011;5498;50.928;11.598;2022-11-02T10:52:11;19.57;;;7.57;;
10890;SDS011;5498;50.928;11.598;2022-11-02T10:55:18;23.03;;;7.17;;
10890;SDS011;5498;50.928;11.598;2022-11-02T10:58:27;13.73;;;5.23;;
10890;SDS011;5498;50.928;11.598;2022-11-02T11:01:33;13.87;;;3.80;;
10890;SDS011;5498;50.928;11.598;2022-11-02T11:04:35;7.00;;;1.93;;
10890;SDS011;5498;50.928;11.598;2022-11-02T11:07:37;7.70;;;2.10;;
10890;SDS011;5498;50.928;11.598;2022-11-02T11:10:44;20.73;;;6.67;;
10890;SDS011;5498;50.928;11.598;2022-11-02T11:13:53;8.47;;;2.70;;
10890;SDS011;5498;50.928;11.598;2022-11-02T11:16:59;13.20;;;3.63;;
10890;SDS011;5498;50.928;11.598;2022-11-02T11:20:03;12.80;;;4.17;;
10890;SDS011;5498;50.928;11.598;2022-11-02T11:23:18;16.30;;;5.10;;
10890;SDS011;5498;50.928;11.598;2022-11-02T11:26:25;20.10;;;5.33;;
10890;SDS011;5498;50.928;11.598;2022-11-02T11:29:33;18.37;;;5.77;;
10890;SDS011;5498;50.928;11.598;2022-11-02T11:32:39;5.80;;;3.00;;
10890;SDS011;5498;50.928;11.598;2022-11-02T11:35:48;14.67;;;5.23;;
10890;SDS011;5498;50.928;11.598;2022-11-02T11:38:52;13.90;;;3.90;;
10890;SDS011;5498;50.928;11.598;2022-11-02T11:41:57;8.47;;;2.37;;
10890;SDS011;5498;50.928;11.598;2022-11-02T11:45:04;10.57;;;2.07;;
10890;SDS011;5498;50.928;11.598;2022-11-02T11:48:19;10.97;;;2.87;;
10890;SDS011;5498;50.928;11.598;2022-11-02T11:51:32;4.37;;;1.67;;
10890;SDS011;5498;50.928;11.598;2022-11-02T11:54:37;4.43;;;1.60;;
10890;SDS011;5498;50.928;11.598;2022-11-02T11:57:39;4.87;;;1.20;;
10890;SDS011;5498;50.928;11.598;2022-11-02T12:00:43;6.63;;;1.60;;
10890;SDS011;5498;50.928;11.598;2022-11-02T12:03:49;4.40;;;1.40;;
10890;SDS011;5498;50.928;11.598;2022-11-02T12:06:56;11.23;;;2.13;;
10890;SDS011;5498;50.928;11.598;2022-11-02T12:10:27;12.40;;;4.90;;
10890;SDS011;5498;50.928;11.598;2022-11-02T12:13:47;6.23;;;2.27;;
10890;SDS011;5498;50.928;11.598;2022-11-02T12:17:19;7.93;;;2.33;;
10890;SDS011;5498;50.928;11.598;2022-11-02T12:20:45;8.87;;;2.53;;
10890;SDS011;5498;50.928;11.598;2022-11-02T12:24:06;12.33;;;2.63;;
10890;SDS011;5498;50.928;11.598;2022-11-02T12:27:25;6.20;;;1.77;;
10890;SDS011;5498;50.928;11.598;2022-11-02T12:30:38;2.73;;;1.53;;
10890;SDS011;5498;50.928;11.598;2022-11-02T12:37:28;4.53;;;1.40;;
10890;SDS011;5498;50.928;11.598;2022-11-02T12:41:01;6.57;;;1.43;;
10890;SDS011;5498;50.928;11.598;2022-11-02T12:44:15;11.53;;;1.83;;
10890;SDS011;5498;50.928;11.598;2022-11-02T12:47:50;5.83;;;1.53;;
10890;SDS011;5498;50.928;11.598;2022-11-02T12:50:59;9.83;;;1.93;;
10890;SDS011;5498;50.928;11.598;2022-11-02T12:54:12;4.33;;;1.17;;
10890;SDS011;5498;50.928;11.598;2022-11-02T12:57:18;6.87;;;1.60;;
10890;SDS011;5498;50.928;11.598;2022-11-02T13:00:24;5.87;;;1.17;;
10890;SDS011;5498;50.928;11.598;2022-11-02T13:03:31;5.50;;;1.20;;
10890;SDS011;5498;50.928;11.598;2022-11-02T13:06:42;3.73;;;1.20;;
10890;SDS011;5498;50.928;11.598;2022-11-02T13:09:48;3.33;;;1.07;;
10890;SDS011;5498;50.928;11.598;2022-11-02T13:12:57;4.90;;;1.03;;
10890;SDS011;5498;50.928;11.598;2022-11-02T13:16:03;4.33;;;0.87;;
10890;SDS011;5498;50.928;11.598;2022-11-02T13:19:11;1.40;;;1.20;;
10890;SDS011;5498;50.928;11.598;2022-11-02T13:22:21;3.90;;;1.40;;
10890;SDS011;5498;50.928;11.598;2022-11-02T13:25:30;6.13;;;1.13;;
10890;SDS011;5498;50.928;11.598;2022-11-02T13:28:38;5.07;;;0.93;;
10890;SDS011;5498;50.928;11.598;2022-11-02T13:31:45;3.37;;;1.30;;
10890;SDS011;5498;50.928;11.598;2022-11-02T13:34:52;6.87;;;1.03;;
10890;SDS011;5498;50.928;11.598;2022-11-02T13:37:57;5.83;;;1.23;;
10890;SDS011;5498;50.928;11.598;2022-11-02T13:45:04;3.80;;;1.40;;
10890;SDS011;5498;50.928;11.598;2022-11-02T13:48:24;6.27;;;1.33;;
10890;SDS011;5498;50.928;11.598;2022-11-02T13:51:41;4.07;;;1.13;;
10890;SDS011;5498;50.928;11.598;2022-11-02T13:54:48;5.90;;;1.00;;
10890;SDS011;5498;50.928;11.598;2022-11-02T13:57:53;6.73;;;1.47;;
10890;SDS011;5498;50.928;11.598;2022-11-02T14:00:59;4.30;;;1.53;;
10890;SDS011;5498;50.928;11.598;2022-11-02T14:04:05;5.20;;;1.20;;
10890;SDS011;5498;50.928;11.598;2022-11-02T14:07:16;4.00;;;1.63;;
10890;SDS011;5498;50.928;11.598;2022-11-02T14:10:25;3.40;;;1.13;;
10890;SDS011;5498;50.928;11.598;2022-11-02T14:17:17;8.23;;;1.57;;
10890;SDS011;5498;50.928;11.598;2022-11-02T14:20:30;3.70;;;1.00;;
10890;SDS011;5498;50.928;11.598;2022-11-02T14:23:37;7.97;;;1.47;;
10890;SDS011;5498;50.928;11.598;2022-11-02T14:26:52;4.20;;;1.40;;
10890;SDS011;5498;50.928;11.598;2022-11-02T14:29:58;3.27;;;1.13;;
10890;SDS011;5498;50.928;11.598;2022-11-02T14:33:00;6.07;;;1.63;;
10890;SDS011;5498;50.928;11.598;2022-11-02T14:36:08;9.33;;;1.20;;
10890;SDS011;5498;50.928;11.598;2022-11-02T14:39:24;4.63;;;1.53;;
10890;SDS011;5498;50.928;11.598;2022-11-02T14:42:45;12.27;;;1.57;;
10890;SDS011;5498;50.928;11.598;2022-11-02T14:46:17;6.17;;;1.33;;
10890;SDS011;5498;50.928;11.598;2022-11-02T14:49:36;11.60;;;1.00;;
10890;SDS011;5498;50.928;11.598;2022-11-02T14:52:53;2.13;;;0.90;;
10890;SDS011;5498;50.928;11.598;2022-11-02T14:56:00;6.70;;;1.50;;
10890;SDS011;5498;50.928;11.598;2022-11-02T14:59:03;5.70;;;1.20;;
10890;SDS011;5498;50.928;11.598;2022-11-02T15:02:06;2.73;;;0.83;;
10890;SDS011;5498;50.928;11.598;2022-11-02T15:05:21;5.07;;;1.50;;
10890;SDS011;5498;50.928;11.598;2022-11-02T15:08:28;5.93;;;1.43;;
10890;SDS011;5498;50.928;11.598;2022-11-02T15:11:42;5.43;;;1.90;;
10890;SDS011;5498;50.928;11.598;2022-11-02T15:14:55;4.30;;;1.73;;
10890;SDS011;5498;50.928;11.598;2022-11-02T15:21:32;4.73;;;1.50;;
10890;SDS011;5498;50.928;11.598;2022-11-02T15:24:35;3.53;;;1.47;;
10890;SDS011;5498;50.928;11.598;2022-11-02T15:27:39;5.03;;;1.30;;
10890;SDS011;5498;50.928;11.598;2022-11-02T15:30:46;6.17;;;1.13;;
10890;SDS011;5498;50.928;11.598;2022-11-02T15:33:52;5.33;;;0.90;;
10890;SDS011;5498;50.928;11.598;2022-11-02T15:36:58;4.47;;;1.17;;
10890;SDS011;5498;50.928;11.598;2022-11-02T15:40:02;10.53;;;1.20;;
10890;SDS011;5498;50.928;11.598;2022-11-02T15:43:28;5.00;;;1.07;;
10890;SDS011;5498;50.928;11.598;2022-11-02T15:46:57;4.03;;;1.63;;
10890;SDS011;5498;50.928;11.598;2022-11-02T15:50:12;6.33;;;1.60;;
10890;SDS011;5498;50.928;11.598;2022-11-02T15:56:52;6.80;;;1.40;;
10890;SDS011;5498;50.928;11.598;2022-11-02T16:00:07;4.83;;;1.60;;
10890;SDS011;5498;50.928;11.598;2022-11-02T16:03:16;6.53;;;1.50;;
10890;SDS011;5498;50.928;11.598;2022-11-02T16:06:22;3.83;;;1.37;;
10890;SDS011;5498;50.928;11.598;2022-11-02T16:09:30;4.67;;;1.70;;
10890;SDS011;5498;50.928;11.598;2022-11-02T16:12:34;7.27;;;1.80;;
10890;SDS011;5498;50.928;11.598;2022-11-02T16:15:36;5.00;;;1.70;;
10890;SDS011;5498;50.928;11.598;2022-11-02T16:18:43;10.47;;;2.33;;
10890;SDS011;5498;50.928;11.598;2022-11-02T16:21:50;6.40;;;2.13;;
10890;SDS011;5498;50.928;11.598;2022-11-02T16:24:53;7.73;;;2.60;;
10890;SDS011;5498;50.928;11.598;2022-11-02T16:27:55;7.33;;;2.93;;
10890;SDS011;5498;50.928;11.598;2022-11-02T16:30:58;8.43;;;2.73;;
10890;SDS011;5498;50.928;11.598;2022-11-02T16:34:04;5.10;;;1.93;;
10890;SDS011;5498;50.928;11.598;2022-11-02T16:37:16;12.13;;;3.20;;
10890;SDS011;5498;50.928;11.598;2022-11-02T16:40:19;6.57;;;2.73;;
10890;SDS011;5498;50.928;11.598;2022-11-02T16:43:22;8.37;;;2.97;;
10890;SDS011;5498;50.928;11.598;2022-11-02T16:46:38;13.60;;;2.70;;
10890;SDS011;5498;50.928;11.598;2022-11-02T16:49:58;6.93;;;2.40;;
10890;SDS011;5498;50.928;11.598;2022-11-02T16:53:00;4.53;;;2.40;;
10890;SDS011;5498;50.928;11.598;2022-11-02T16:56:16;5.93;;;2.57;;
10890;SDS011;5498;50.928;11.598;2022-11-02T16:59:26;9.30;;;2.60;;
10890;SDS011;5498;50.928;11.598;2022-11-02T17:02:30;5.40;;;2.30;;
10890;SDS011;5498;50.928;11.598;2022-11-02T17:05:39;9.40;;;3.67;;
10890;SDS011;5498;50.928;11.598;2022-11-02T17:08:43;8.60;;;3.27;;
10890;SDS011;5498;50.928;11.598;2022-11-02T17:11:52;7.23;;;2.10;;
10890;SDS011;5498;50.928;11.598;2022-11-02T17:14:57;10.53;;;2.57;;
10890;SDS011;5498;50.928;11.598;2022-11-02T17:18:13;8.97;;;2.20;;
10890;SDS011;5498;50.928;11.598;2022-11-02T17:21:28;6.57;;;2.33;;
10890;SDS011;5498;50.928;11.598;2022-11-02T17:24:30;5.90;;;2.67;;
10890;SDS011;5498;50.928;11.598;2022-11-02T17:27:35;7.33;;;3.13;;
10890;SDS011;5498;50.928;11.598;2022-11-02T17:30:41;8.80;;;3.13;;
10890;SDS011;5498;50.928;11.598;2022-11-02T17:33:45;8.93;;;4.50;;
10890;SDS011;5498;50.928;11.598;2022-11-02T17:36:49;8.53;;;3.90;;
10890;SDS011;5498;50.928;11.598;2022-11-02T17:39:51;6.47;;;3.80;;
10890;SDS011;5498;50.928;11.598;2022-11-02T17:42:57;10.63;;;4.27;;
10890;SDS011;5498;50.928;11.598;2022-11-02T17:45:59;12.07;;;3.70;;
10890;SDS011;5498;50.928;11.598;2022-11-02T17:49:02;13.33;;;4.37;;
10890;SDS011;5498;50.928;11.598;2022-11-02T17:52:05;11.33;;;4.80;;
10890;SDS011;5498;50.928;11.598;2022-11-02T17:55:12;11.67;;;3.87;;
10890;SDS011;5498;50.928;11.598;2022-11-02T17:58:16;12.47;;;4.13;;
10890;SDS011;5498;50.928;11.598;2022-11-02T18:01:18;10.03;;;4.80;;
10890;SDS011;5498;50.928;11.598;2022-11-02T18:04:21;9.43;;;5.00;;
10890;SDS011;5498;50.928;11.598;2022-11-02T18:07:25;7.73;;;5.23;;
10890;SDS011;5498;50.928;11.598;2022-11-02T18:10:27;6.97;;;4.50;;
10890;SDS011;5498;50.928;11.598;2022-11-02T18:13:33;8.30;;;3.90;;
10890;SDS011;5498;50.928;11.598;2022-11-02T18:16:37;11.37;;;4.77;;
10890;SDS011;5498;50.928;11.598;2022-11-02T18:19:39;7.47;;;3.87;;
10890;SDS011;5498;50.928;11.598;2022-11-02T18:22:42;8.53;;;4.40;;
10890;SDS011;5498;50.928;11.598;2022-11-02T18:25:44;12.70;;;5.93;;
10890;SDS011;5498;50.928;11.598;2022-11-02T18:28:47;8.73;;;4.03;;
10890;SDS011;5498;50.928;11.598;2022-11-02T18:31:49;15.37;;;4.93;;
10890;SDS011;5498;50.928;11.598;2022-11-02T18:34:51;9.03;;;4.60;;
10890;SDS011;5498;50.928;11.598;2022-11-02T18:37:54;8.40;;;4.13;;
10890;SDS011;5498;50.928;11.598;2022-11-02T18:41:01;10.77;;;5.57;;
10890;SDS011;5498;50.928;11.598;2022-11-02T18:44:25;21.80;;;5.83;;
10890;SDS011;5498;50.928;11.598;2022-11-02T18:47:27;13.13;;;5.67;;
10890;SDS011;5498;50.928;11.598;2022-11-02T18:50:29;13.10;;;5.37;;
10890;SDS011;5498;50.928;11.598;2022-11-02T18:53:32;15.57;;;5.90;;
10890;SDS011;5498;50.928;11.598;2022-11-02T18:56:34;10.90;;;5.67;;
10890;SDS011;5498;50.928;11.598;2022-11-02T18:59:36;11.93;;;7.13;;